Time;durP1;ratioP1;P1;durP2;ratioP2;P2;SDS_P1;SDS_P2;PMS_P1;PMS_P2;Temp;Humidity;BMP_temperature;BMP_pressure;BME280_temperature;BME280_humidity;BME280_pressure;Samples;Min_cycle;Max_cycle;Signal;HPM_P1;HPM_P2
2021/04/08 00:01:58;;;;;;;20.13;10.98;;;2.90;74.00;;;;;;5075315;28;20556;-75
2021/04/08 00:04:24;;;;;;;17.90;9.93;;;2.90;74.10;;;;;;5075794;28;20029;-75
2021/04/08 00:06:50;;;;;;;15.70;8.95;;;2.80;74.10;;;;;;5075956;28;20077;-75
2021/04/08 00:09:16;;;;;;;18.73;9.95;;;2.80;74.10;;;;;;5076793;28;20021;-76
2021/04/08 00:11:42;;;;;;;20.38;9.10;;;2.80;74.10;;;;;;5076552;28;20035;-76
2021/04/08 00:14:08;;;;;;;13.65;8.30;;;2.80;74.10;;;;;;5074542;28;20030;-76
2021/04/08 00:16:34;;;;;;;14.02;8.63;;;2.80;74.20;;;;;;5075522;28;20132;-76
2021/04/08 00:18:59;;;;;;;16.85;9.02;;;2.70;74.20;;;;;;5076164;28;20072;-76
2021/04/08 00:21:25;;;;;;;15.98;8.80;;;2.80;74.30;;;;;;5075460;28;20486;-76
2021/04/08 00:23:51;;;;;;;17.40;9.00;;;2.70;74.20;;;;;;5073893;28;20033;-76
2021/04/08 00:26:17;;;;;;;16.00;8.70;;;2.70;74.20;;;;;;5074902;28;20081;-77
2021/04/08 00:28:43;;;;;;;15.13;8.82;;;2.70;74.20;;;;;;5075942;28;20045;-75
2021/04/08 00:31:09;;;;;;;16.77;8.05;;;2.70;74.30;;;;;;5074703;28;20069;-76
2021/04/08 00:33:35;;;;;;;16.10;8.27;;;2.70;74.30;;;;;;5073810;28;20476;-75
2021/04/08 00:36:00;;;;;;;16.17;7.88;;;2.70;74.40;;;;;;5075207;28;20038;-76
2021/04/08 00:38:26;;;;;;;14.73;8.13;;;2.70;74.50;;;;;;5076216;28;20477;-75
2021/04/08 00:40:52;;;;;;;13.02;8.13;;;2.60;74.50;;;;;;5075610;28;20041;-75
2021/04/08 00:43:18;;;;;;;16.88;7.80;;;2.60;74.60;;;;;;5075069;28;20020;-75
2021/04/08 00:45:43;;;;;;;13.13;7.57;;;2.60;74.60;;;;;;5074945;28;20028;-76
2021/04/08 00:48:09;;;;;;;14.63;7.20;;;2.60;74.60;;;;;;5075482;28;20092;-75
2021/04/08 00:50:35;;;;;;;15.45;8.35;;;2.60;74.70;;;;;;5075766;28;20051;-75
2021/04/08 00:53:07;;;;;;;15.27;7.75;;;2.60;74.70;;;;;;5075243;28;20035;-75
2021/04/08 00:55:47;;;;;;;16.90;8.55;;;2.60;74.70;;;;;;5074896;28;20089;-75
2021/04/08 00:58:14;;;;;;;17.58;9.38;;;2.60;74.70;;;;;;5073818;28;20028;-75
2021/04/08 01:00:42;;;;;;;15.13;8.95;;;2.60;74.60;;;;;;5073329;28;20029;-75
2021/04/08 01:03:09;;;;;;;15.48;9.40;;;2.60;74.70;;;;;;5073741;28;20571;-76
2021/04/08 01:05:35;;;;;;;16.05;8.60;;;2.60;74.80;;;;;;5073624;28;20032;-75
2021/04/08 01:08:01;;;;;;;14.88;7.97;;;2.50;74.60;;;;;;5074644;28;20056;-75
2021/04/08 01:10:28;;;;;;;17.33;8.18;;;2.50;74.70;;;;;;5074980;28;20033;-76
2021/04/08 01:12:56;;;;;;;18.15;8.85;;;2.50;74.80;;;;;;5073503;28;20105;-76
2021/04/08 01:15:23;;;;;;;15.07;8.45;;;2.50;74.80;;;;;;5074657;28;20058;-76
2021/04/08 01:18:15;;;;;;;19.20;9.13;;;2.50;74.90;;;;;;5074218;28;20039;-75
2021/04/08 01:21:11;;;;;;;14.68;7.60;;;2.50;74.90;;;;;;5074277;28;20089;-76
2021/04/08 01:23:45;;;;;;;;;;;2.50;74.90;;;;;;5075553;28;20036;-75
2021/04/08 01:26:48;;;;;;;12.63;7.68;;;2.50;74.80;;;;;;5074106;28;19912;-75
2021/04/08 01:29:43;;;;;;;15.50;8.32;;;2.50;74.70;;;;;;5074258;28;20031;-75
2021/04/08 01:32:11;;;;;;;16.80;7.77;;;2.50;74.80;;;;;;5071350;28;20052;-76
2021/04/08 01:34:40;;;;;;;14.63;7.90;;;2.50;74.90;;;;;;5073695;28;20040;-76
2021/04/08 01:37:09;;;;;;;14.52;8.10;;;2.50;75.00;;;;;;5073912;28;20029;-76
2021/04/08 01:39:37;;;;;;;10.68;7.20;;;2.40;75.00;;;;;;5073873;28;20021;-75
2021/04/08 01:42:04;;;;;;;13.25;7.88;;;2.40;75.00;;;;;;5074428;28;20025;-75
2021/04/08 01:44:30;;;;;;;13.60;7.82;;;2.50;75.00;;;;;;5074187;28;20423;-75
2021/04/08 01:47:00;;;;;;;16.17;8.10;;;2.50;75.00;;;;;;5074040;28;20024;-76
2021/04/08 01:49:31;;;;;;;13.65;7.57;;;2.50;75.00;;;;;;5073937;28;20028;-76
2021/04/08 01:51:57;;;;;;;14.02;8.40;;;2.40;75.00;;;;;;5061620;28;20021;-75
2021/04/08 01:54:26;;;;;;;18.60;8.23;;;2.40;74.90;;;;;;5061894;28;20028;-75
2021/04/08 01:56:57;;;;;;;17.70;9.32;;;2.40;74.90;;;;;;5073938;28;20032;-76
2021/04/08 01:59:24;;;;;;;21.13;9.23;;;2.40;74.90;;;;;;5073853;28;20028;-75
2021/04/08 02:01:53;;;;;;;21.65;10.38;;;2.40;74.80;;;;;;5073333;28;20069;-75
2021/04/08 02:04:18;;;;;;;16.95;9.32;;;2.40;74.80;;;;;;5071888;28;20033;-75
2021/04/08 02:06:47;;;;;;;12.18;7.60;;;2.40;74.80;;;;;;5073680;28;20036;-76
2021/04/08 02:09:13;;;;;;;15.15;8.30;;;2.40;74.80;;;;;;5072877;28;20024;-76
2021/04/08 02:11:40;;;;;;;17.20;8.55;;;2.40;74.80;;;;;;5074645;28;20032;-75
2021/04/08 02:14:09;;;;;;;12.68;7.20;;;2.40;74.80;;;;;;5073773;28;20137;-76
2021/04/08 02:16:36;;;;;;;16.30;7.45;;;2.40;74.80;;;;;;5075262;28;20024;-76
2021/04/08 02:19:06;;;;;;;12.43;6.63;;;2.40;74.80;;;;;;5073663;28;20060;-76
2021/04/08 02:21:32;;;;;;;12.35;6.90;;;2.40;74.70;;;;;;5073282;28;20519;-76
2021/04/08 02:23:58;;;;;;;12.18;6.72;;;2.40;74.80;;;;;;5074030;28;20024;-76
2021/04/08 02:26:26;;;;;;;11.93;6.65;;;2.40;74.70;;;;;;5073205;28;20084;-76
2021/04/08 02:28:52;;;;;;;13.80;6.88;;;2.40;74.60;;;;;;5073591;28;20025;-76
2021/04/08 02:31:19;;;;;;;12.95;7.43;;;2.40;74.60;;;;;;5073271;28;20032;-75
2021/04/08 02:33:45;;;;;;;14.68;7.20;;;2.40;74.60;;;;;;5072046;28;20067;-75
2021/04/08 02:36:11;;;;;;;12.55;6.70;;;2.40;74.60;;;;;;5073349;28;20064;-75
2021/04/08 02:38:37;;;;;;;14.05;7.85;;;2.40;74.70;;;;;;5076542;28;20032;-75
2021/04/08 02:41:06;;;;;;;10.48;6.75;;;2.40;74.60;;;;;;5075681;28;20355;-75
2021/04/08 02:43:32;;;;;;;15.27;7.10;;;2.40;74.70;;;;;;5076494;28;20096;-75
2021/04/08 02:45:58;;;;;;;11.35;6.82;;;2.40;74.70;;;;;;5076680;28;20028;-75
2021/04/08 02:48:25;;;;;;;11.27;6.30;;;2.40;74.70;;;;;;5076538;28;20433;-76
2021/04/08 02:50:58;;;;;;;10.45;6.47;;;2.40;74.70;;;;;;5076942;28;20062;-76
2021/04/08 02:53:38;;;;;;;10.45;6.25;;;2.40;74.70;;;;;;5076699;28;20386;-76
2021/04/08 02:56:15;;;;;;;11.77;6.22;;;2.40;74.70;;;;;;5076586;28;20075;-75
2021/04/08 02:58:44;;;;;;;10.93;6.53;;;2.40;74.60;;;;;;5075602;28;20159;-76
2021/04/08 03:01:12;;;;;;;9.20;6.32;;;2.40;74.60;;;;;;5075802;28;20056;-76
2021/04/08 03:03:50;;;;;;;10.93;7.07;;;2.40;74.60;;;;;;5076634;28;20481;-75
2021/04/08 03:06:16;;;;;;;8.80;6.10;;;2.40;74.60;;;;;;5076267;28;20375;-76
2021/04/08 03:08:45;;;;;;;14.60;6.43;;;2.40;74.60;;;;;;5075077;28;20024;-76
2021/04/08 03:11:12;;;;;;;11.02;6.82;;;2.40;74.60;;;;;;5076292;28;20036;-75
2021/04/08 03:13:41;;;;;;;11.98;7.05;;;2.40;74.60;;;;;;5078203;28;20107;-75
2021/04/08 03:16:13;;;;;;;11.02;7.00;;;2.40;74.60;;;;;;5072133;28;20047;-75
2021/04/08 03:18:42;;;;;;;10.60;6.97;;;2.40;74.60;;;;;;5055704;28;20449;-76
2021/04/08 03:21:09;;;;;;;12.40;7.80;;;2.40;74.50;;;;;;5055949;28;20025;-75
2021/04/08 03:23:36;;;;;;;11.32;7.22;;;2.40;74.50;;;;;;5054252;28;20053;-75
2021/04/08 03:26:03;;;;;;;11.50;7.22;;;2.40;74.50;;;;;;5056165;28;20386;-76
2021/04/08 03:28:30;;;;;;;12.18;7.55;;;2.40;74.40;;;;;;5055963;28;20059;-76
2021/04/08 03:30:57;;;;;;;10.52;7.45;;;2.40;74.30;;;;;;5055522;28;20021;-76
2021/04/08 03:33:23;;;;;;;11.45;7.15;;;2.50;74.40;;;;;;5071451;28;20024;-80
2021/04/08 03:35:50;;;;;;;13.48;7.50;;;2.50;74.30;;;;;;5069382;28;20078;-76
2021/04/08 03:38:17;;;;;;;17.13;8.25;;;2.50;74.30;;;;;;5074656;28;20025;-76
2021/04/08 03:40:44;;;;;;;16.65;7.80;;;2.50;74.30;;;;;;5073676;28;20025;-78
2021/04/08 03:43:11;;;;;;;14.95;8.20;;;2.50;74.30;;;;;;5074166;28;20519;-76
2021/04/08 03:45:37;;;;;;;13.75;8.10;;;2.50;74.40;;;;;;5074423;28;20020;-78
2021/04/08 03:48:05;;;;;;;13.60;7.78;;;2.50;74.30;;;;;;5073728;28;20112;-76
2021/04/08 03:50:31;;;;;;;13.77;7.95;;;2.50;74.20;;;;;;5074227;28;20039;-76
2021/04/08 03:52:58;;;;;;;12.52;8.05;;;2.60;74.30;;;;;;5073942;28;20147;-76
2021/04/08 03:55:26;;;;;;;12.25;7.55;;;2.60;74.20;;;;;;5072167;28;20089;-76
2021/04/08 03:57:54;;;;;;;12.32;7.60;;;2.60;74.20;;;;;;5075552;28;20025;-75
2021/04/08 04:00:20;;;;;;;12.43;7.57;;;2.70;74.10;;;;;;5075251;28;20025;-76
2021/04/08 04:02:47;;;;;;;14.23;8.07;;;2.70;74.00;;;;;;5074880;28;20029;-76
2021/04/08 04:05:13;;;;;;;13.55;8.20;;;2.70;73.90;;;;;;5074657;28;20039;-76
2021/04/08 04:07:41;;;;;;;12.80;8.25;;;2.70;73.90;;;;;;5074680;28;20025;-76
2021/04/08 04:10:07;;;;;;;11.77;7.22;;;2.70;73.90;;;;;;5073991;28;20074;-76
2021/04/08 04:12:37;;;;;;;14.75;8.88;;;2.70;73.80;;;;;;5075472;28;20044;-75
2021/04/08 04:15:10;;;;;;;13.90;8.07;;;2.80;73.80;;;;;;5074840;28;20040;-75
2021/04/08 04:17:36;;;;;;;15.52;8.00;;;2.80;73.70;;;;;;5054064;28;20073;-75
2021/04/08 04:20:05;;;;;;;13.70;7.45;;;2.90;73.70;;;;;;5054892;28;20072;-76
2021/04/08 04:22:32;;;;;;;14.48;7.93;;;2.90;73.60;;;;;;5054466;28;20032;-76
2021/04/08 04:24:57;;;;;;;14.27;8.43;;;3.00;73.70;;;;;;5055183;28;20043;-76
2021/04/08 04:27:23;;;;;;;14.77;8.35;;;3.00;73.60;;;;;;5076333;28;20028;-76
2021/04/08 04:29:49;;;;;;;16.95;8.55;;;3.10;73.50;;;;;;5077864;28;20028;-76
2021/04/08 04:32:16;;;;;;;12.20;8.13;;;3.10;73.50;;;;;;5074963;28;20017;-76
2021/04/08 04:34:43;;;;;;;9.73;7.15;;;3.20;73.40;;;;;;5074742;28;20021;-76
2021/04/08 04:37:10;;;;;;;14.43;9.40;;;3.20;73.30;;;;;;5075766;28;20032;-76
2021/04/08 04:39:37;;;;;;;17.58;10.43;;;3.30;73.10;;;;;;5081204;28;20025;-77
2021/04/08 04:42:03;;;;;;;14.35;9.35;;;3.30;73.00;;;;;;5077943;28;20024;-76
2021/04/08 04:44:29;;;;;;;17.48;9.93;;;3.40;73.00;;;;;;5083111;28;20028;-78
2021/04/08 04:46:56;;;;;;;17.30;10.32;;;3.40;72.90;;;;;;5086120;28;20028;-75
2021/04/08 04:49:23;;;;;;;15.35;9.73;;;3.50;72.90;;;;;;5082612;28;20028;-75
2021/04/08 04:51:49;;;;;;;14.07;8.85;;;3.50;72.70;;;;;;5077999;28;20100;-75
2021/04/08 04:54:15;;;;;;;16.08;8.65;;;3.60;72.50;;;;;;5075880;28;20527;-77
2021/04/08 04:56:41;;;;;;;24.95;11.70;;;3.70;72.30;;;;;;5074960;28;20178;-76
2021/04/08 04:59:06;;;;;;;22.73;10.80;;;3.70;72.10;;;;;;5074284;28;20470;-76
2021/04/08 05:01:32;;;;;;;18.10;10.18;;;3.70;72.00;;;;;;5074146;28;20105;-77
2021/04/08 05:03:58;;;;;;;18.25;10.32;;;3.80;72.10;;;;;;5073164;28;20031;-77
2021/04/08 05:06:24;;;;;;;17.88;10.20;;;3.80;71.90;;;;;;5074961;28;20028;-76
2021/04/08 05:08:50;;;;;;;19.60;9.93;;;3.90;71.90;;;;;;5074459;28;20116;-75
2021/04/08 05:11:16;;;;;;;20.73;10.93;;;3.90;71.80;;;;;;5074120;28;20443;-76
2021/04/08 05:13:41;;;;;;;19.20;10.57;;;4.00;71.70;;;;;;5074228;28;20024;-77
2021/04/08 05:16:07;;;;;;;18.92;10.30;;;4.00;71.50;;;;;;5074227;28;20076;-76
2021/04/08 05:18:33;;;;;;;19.00;11.15;;;4.10;71.40;;;;;;5074058;28;20390;-77
2021/04/08 05:20:59;;;;;;;18.77;10.85;;;4.10;71.20;;;;;;5073646;28;20107;-77
2021/04/08 05:23:25;;;;;;;14.80;9.60;;;4.20;71.30;;;;;;5073520;28;20032;-76
2021/04/08 05:25:51;;;;;;;17.92;10.18;;;4.30;71.10;;;;;;5073924;28;20115;-76
2021/04/08 05:28:17;;;;;;;21.63;11.35;;;4.30;70.60;;;;;;5073989;28;20025;-79
2021/04/08 05:30:43;;;;;;;18.30;10.15;;;4.40;70.40;;;;;;5073608;28;20073;-76
2021/04/08 05:33:09;;;;;;;16.98;10.00;;;4.40;70.10;;;;;;5073923;28;20032;-76
2021/04/08 05:35:35;;;;;;;20.05;10.25;;;4.50;70.10;;;;;;5072781;28;20036;-78
2021/04/08 05:38:02;;;;;;;14.80;9.40;;;4.50;69.80;;;;;;5065420;28;20025;-77
2021/04/08 05:40:28;;;;;;;18.85;10.63;;;4.60;69.80;;;;;;5063083;28;20028;-77
2021/04/08 05:42:53;;;;;;;15.05;9.32;;;4.70;69.60;;;;;;5071941;28;20104;-77
2021/04/08 05:45:21;;;;;;;16.73;9.65;;;4.80;69.20;;;;;;5067938;28;20096;-76
2021/04/08 05:47:46;;;;;;;15.68;9.43;;;4.90;68.80;;;;;;5073503;28;20021;-77
2021/04/08 05:50:13;;;;;;;18.65;9.25;;;5.00;68.70;;;;;;5073379;28;20029;-77
2021/04/08 05:52:39;;;;;;;14.15;8.38;;;5.10;68.50;;;;;;5074106;28;20078;-76
2021/04/08 05:55:06;;;;;;;18.38;9.52;;;5.10;68.80;;;;;;5073900;28;20037;-76
2021/04/08 05:57:32;;;;;;;14.48;9.25;;;5.20;67.90;;;;;;5073663;28;20028;-78
2021/04/08 05:59:58;;;;;;;17.92;9.85;;;5.20;67.70;;;;;;5074367;28;20111;-76
2021/04/08 06:02:24;;;;;;;16.50;9.30;;;5.30;67.70;;;;;;5073919;28;20064;-77
2021/04/08 06:04:50;;;;;;;20.42;9.70;;;5.40;67.60;;;;;;5072826;28;20044;-76
2021/04/08 06:07:16;;;;;;;15.65;9.23;;;5.50;67.20;;;;;;5073922;28;20024;-77
2021/04/08 06:09:42;;;;;;;16.30;8.82;;;5.60;66.80;;;;;;5073854;28;20090;-77
2021/04/08 06:12:09;;;;;;;16.13;9.85;;;5.70;66.70;;;;;;5077243;28;20028;-76
2021/04/08 06:14:36;;;;;;;15.98;8.88;;;5.80;66.40;;;;;;5077201;28;20090;-77
2021/04/08 06:17:03;;;;;;;13.85;8.95;;;5.90;65.70;;;;;;5078022;28;20090;-75
2021/04/08 06:19:29;;;;;;;12.57;7.95;;;6.00;65.20;;;;;;5078105;28;20417;-76
2021/04/08 06:21:54;;;;;;;10.05;7.35;;;6.10;64.90;;;;;;5078572;28;20025;-75
2021/04/08 06:24:20;;;;;;;13.20;7.75;;;6.10;64.50;;;;;;5077429;28;20024;-75
2021/04/08 06:26:46;;;;;;;12.40;8.55;;;6.20;64.00;;;;;;5077088;28;20036;-76
2021/04/08 06:29:11;;;;;;;13.95;8.13;;;6.30;63.90;;;;;;5077712;28;20036;-77
2021/04/08 06:31:37;;;;;;;12.18;7.47;;;6.40;63.80;;;;;;5077247;28;20025;-77
2021/04/08 06:34:03;;;;;;;12.55;7.55;;;6.50;62.80;;;;;;5077056;28;20516;-76
2021/04/08 06:36:29;;;;;;;12.90;7.65;;;6.50;62.30;;;;;;5076927;28;20068;-76
2021/04/08 06:38:54;;;;;;;11.35;7.57;;;6.60;62.00;;;;;;5076678;28;20067;-78
2021/04/08 06:41:20;;;;;;;12.82;7.85;;;6.70;61.40;;;;;;5072845;28;20525;-75
2021/04/08 06:43:46;;;;;;;12.77;8.00;;;6.70;60.90;;;;;;5076039;28;20081;-77
2021/04/08 06:46:21;;;;;;;12.52;8.02;;;6.80;60.90;;;;;;5076572;28;20029;-76
2021/04/08 06:49:31;;;;;;;10.30;7.15;;;6.90;60.60;;;;;;5075772;28;20016;-75
2021/04/08 06:51:58;;;;;;;14.13;8.13;;;7.00;59.80;;;;;;5052634;28;20037;-76
2021/04/08 06:54:25;;;;;;;14.43;7.60;;;7.10;59.50;;;;;;5073137;28;20037;-76
2021/04/08 06:56:51;;;;;;;12.93;7.68;;;7.10;59.30;;;;;;5074689;28;20056;-77
2021/04/08 06:59:18;;;;;;;11.55;6.97;;;7.10;59.30;;;;;;5073702;28;20107;-78
2021/04/08 07:01:45;;;;;;;9.68;6.78;;;7.20;58.90;;;;;;5077016;28;20081;-77
2021/04/08 07:04:11;;;;;;;11.90;6.82;;;7.30;58.10;;;;;;5075229;28;20117;-79
2021/04/08 07:06:38;;;;;;;12.02;8.18;;;7.30;57.40;;;;;;5075587;28;20036;-76
2021/04/08 07:09:07;;;;;;;15.32;7.38;;;7.40;57.30;;;;;;5075889;28;20017;-76
2021/04/08 07:11:34;;;;;;;9.05;6.35;;;7.40;57.20;;;;;;5075619;28;20050;-69
2021/04/08 07:14:00;;;;;;;8.82;6.47;;;7.50;56.60;;;;;;5072886;28;20029;-72
2021/04/08 07:16:26;;;;;;;9.30;6.30;;;7.50;56.10;;;;;;5072720;28;20470;-73
2021/04/08 07:18:54;;;;;;;10.75;6.30;;;7.60;55.60;;;;;;5073515;28;20055;-71
2021/04/08 07:21:21;;;;;;;8.27;6.07;;;7.60;55.10;;;;;;5074100;28;20481;-70
2021/04/08 07:24:06;;;;;;;8.85;6.03;;;7.70;55.00;;;;;;5072797;28;20042;-72
2021/04/08 07:26:32;;;;;;;11.68;7.15;;;7.80;54.00;;;;;;5071717;28;20036;-70
2021/04/08 07:28:57;;;;;;;11.80;6.65;;;7.80;54.40;;;;;;5073125;28;20024;-70
2021/04/08 07:31:32;;;;;;;11.27;6.28;;;8.00;54.20;;;;;;5073572;28;20029;-71
2021/04/08 07:33:59;;;;;;;8.93;5.95;;;8.10;53.20;;;;;;5073292;28;20109;-71
2021/04/08 07:36:38;;;;;;;11.55;7.45;;;8.30;53.10;;;;;;5073669;28;20351;-71
2021/04/08 07:39:06;;;;;;;11.63;7.05;;;8.40;52.20;;;;;;5073137;28;20028;-70
2021/04/08 07:41:35;;;;;;;10.55;6.70;;;8.50;51.70;;;;;;5073282;28;20025;-70
2021/04/08 07:44:12;;;;;;;8.23;5.90;;;8.60;51.40;;;;;;5073528;28;20020;-73
2021/04/08 07:46:43;;;;;;;10.13;6.22;;;8.80;51.00;;;;;;5071729;28;20118;-70
2021/04/08 07:49:31;;;;;;;12.32;7.22;;;9.00;51.10;;;;;;5070840;28;20020;-70
2021/04/08 07:52:13;;;;;;;9.88;6.00;;;9.20;50.70;;;;;;5071628;28;20027;-70
2021/04/08 07:54:39;;;;;;;9.10;5.88;;;9.50;51.30;;;;;;5071074;28;20146;-70
2021/04/08 07:57:05;;;;;;;8.20;5.53;;;9.80;49.30;;;;;;5072841;28;20040;-71
2021/04/08 07:59:31;;;;;;;8.93;6.35;;;9.90;48.20;;;;;;5073193;28;20036;-71
2021/04/08 08:02:02;;;;;;;7.45;5.85;;;10.10;47.80;;;;;;5072545;28;20034;-71
2021/04/08 08:04:29;;;;;;;8.43;5.10;;;10.30;47.20;;;;;;5070182;28;20123;-70
2021/04/08 08:06:56;;;;;;;6.15;4.55;;;10.50;45.90;;;;;;5072908;28;20029;-70
2021/04/08 08:09:32;;;;;;;10.63;5.40;;;10.60;44.60;;;;;;5073087;28;20429;-71
2021/04/08 08:12:18;;;;;;;7.20;4.88;;;10.80;44.20;;;;;;5071498;28;20028;-70
2021/04/08 08:14:44;;;;;;;7.80;5.07;;;11.00;42.90;;;;;;5071522;28;20036;-71
2021/04/08 08:17:12;;;;;;;6.05;5.05;;;11.10;42.50;;;;;;5072982;28;20051;-71
2021/04/08 08:19:43;;;;;;;8.30;5.40;;;11.20;42.50;;;;;;5071153;28;20053;-71
2021/04/08 08:22:21;;;;;;;9.50;5.18;;;11.60;42.60;;;;;;5070454;28;20484;-71
2021/04/08 08:25:00;;;;;;;6.40;4.93;;;12.10;41.60;;;;;;5073933;28;20037;-70
2021/04/08 08:27:49;;;;;;;7.82;5.03;;;12.30;40.80;;;;;;5073930;28;20024;-71
2021/04/08 08:30:31;;;;;;;9.60;6.03;;;12.80;40.40;;;;;;5073828;28;20028;-70
2021/04/08 08:33:10;;;;;;;8.77;5.32;;;13.50;39.90;;;;;;5071711;28;20032;-71
2021/04/08 08:35:37;;;;;;;7.03;5.18;;;13.50;39.20;;;;;;5073734;28;20036;-71
2021/04/08 08:38:13;;;;;;;7.93;5.15;;;13.70;39.60;;;;;;5073633;28;20029;-71
2021/04/08 08:40:40;;;;;;;8.07;5.78;;;14.10;38.80;;;;;;5073589;28;20076;-71
2021/04/08 08:43:08;;;;;;;10.35;6.10;;;14.00;38.30;;;;;;5073073;28;20171;-72
2021/04/08 08:45:35;;;;;;;8.52;6.15;;;13.90;37.80;;;;;;5073044;28;20030;-72
2021/04/08 08:48:18;;;;;;;25.58;11.88;;;13.80;37.70;;;;;;5072186;28;20031;-71
2021/04/08 08:50:44;;;;;;;10.43;7.28;;;14.00;38.20;;;;;;5070743;28;20576;-69
2021/04/08 08:53:11;;;;;;;9.18;6.65;;;14.30;36.70;;;;;;5072002;28;20028;-70
2021/04/08 08:55:39;;;;;;;8.60;5.65;;;14.00;36.10;;;;;;5071907;28;20032;-75
2021/04/08 08:58:06;;;;;;;8.75;5.63;;;13.50;35.70;;;;;;5069420;28;20039;-71
2021/04/08 09:00:32;;;;;;;9.05;6.80;;;13.10;36.10;;;;;;5071438;28;20398;-70
2021/04/08 09:02:59;;;;;;;7.53;5.50;;;12.90;36.40;;;;;;5071480;28;20028;-72
2021/04/08 09:05:30;;;;;;;9.23;5.30;;;12.70;36.30;;;;;;5069248;28;20028;-71
2021/04/08 09:08:00;;;;;;;8.27;5.70;;;12.30;36.10;;;;;;5072045;28;20028;-70
2021/04/08 09:10:32;;;;;;;8.20;6.28;;;12.10;36.70;;;;;;5069528;28;20112;-71
2021/04/08 09:12:58;;;;;;;8.20;5.80;;;12.10;37.20;;;;;;5072008;28;20082;-72
2021/04/08 09:15:25;;;;;;;7.63;6.00;;;12.50;37.20;;;;;;5071952;28;20032;-71
2021/04/08 09:18:00;;;;;;;6.63;5.55;;;12.80;36.70;;;;;;5071476;28;20020;-71
2021/04/08 09:20:27;;;;;;;11.43;6.93;;;12.80;36.00;;;;;;5069128;28;20090;-71
2021/04/08 09:23:03;;;;;;;8.65;6.45;;;12.80;36.00;;;;;;5071574;28;20021;-71
2021/04/08 09:25:49;;;;;;;8.23;6.03;;;12.60;36.30;;;;;;5069562;28;20032;-72
2021/04/08 09:28:16;;;;;;;11.02;6.47;;;12.40;36.20;;;;;;5070037;28;20414;-70
2021/04/08 09:33:18;;;;;;;12.90;8.55;;;12.00;36.20;;;;;;5071705;28;20074;-73
2021/04/08 09:35:44;;;;;;;15.27;8.50;;;11.90;36.80;;;;;;5071394;28;20032;-71
2021/04/08 09:38:10;;;;;;;11.70;8.93;;;11.80;37.10;;;;;;5071391;28;20048;-70
2021/04/08 09:40:43;;;;;;;11.68;8.45;;;12.10;38.20;;;;;;5071494;28;20117;-71
2021/04/08 09:43:11;;;;;;;9.73;7.53;;;13.50;38.80;;;;;;5069179;28;20016;-71
2021/04/08 09:45:53;;;;;;;10.63;7.47;;;14.70;37.30;;;;;;5073066;28;20033;-70
2021/04/08 09:48:24;;;;;;;11.32;7.88;;;14.90;35.40;;;;;;5077014;28;20028;-71
2021/04/08 09:50:51;;;;;;;8.75;6.60;;;14.50;35.30;;;;;;5076784;28;20191;-71
2021/04/08 09:53:25;;;;;;;13.10;6.85;;;14.10;34.80;;;;;;5076829;28;20112;-71
2021/04/08 09:55:57;;;;;;;8.00;6.00;;;13.40;34.70;;;;;;5076399;28;20040;-70
2021/04/08 09:58:27;;;;;;;7.88;6.30;;;12.70;35.50;;;;;;5076750;28;20028;-71
2021/04/08 10:00:56;;;;;;;8.48;6.32;;;12.30;36.20;;;;;;5076615;28;20458;-71
2021/04/08 10:03:35;;;;;;;9.60;7.10;;;12.90;37.60;;;;;;5076698;28;20033;-70
2021/04/08 10:06:23;;;;;;;10.20;7.63;;;14.30;37.60;;;;;;5076584;28;20402;-71
2021/04/08 10:08:49;;;;;;;8.13;6.82;;;16.00;36.60;;;;;;5075124;28;20497;-70
2021/04/08 10:11:33;;;;;;;8.23;6.90;;;17.50;36.40;;;;;;5076641;28;20415;-70
2021/04/08 10:13:59;;;;;;;7.03;6.30;;;19.00;33.90;;;;;;5076263;28;20493;-70
2021/04/08 10:16:25;;;;;;;10.98;7.03;;;20.10;32.60;;;;;;5076312;28;20063;-70
2021/04/08 10:19:01;;;;;;;6.90;6.07;;;20.60;30.30;;;;;;5076226;28;20048;-71
2021/04/08 10:21:28;;;;;;;7.68;6.40;;;20.50;29.40;;;;;;5075968;28;20626;-71
2021/04/08 10:23:54;;;;;;;9.35;7.82;;;20.30;29.20;;;;;;5073316;28;20032;-70
2021/04/08 10:26:31;;;;;;;10.68;7.88;;;19.70;29.50;;;;;;5076343;28;20037;-70
2021/04/08 10:28:59;;;;;;;9.35;7.30;;;19.00;29.80;;;;;;5075981;28;20024;-71
2021/04/08 10:31:24;;;;;;;8.43;7.53;;;18.50;29.90;;;;;;5076306;28;20032;-70
2021/04/08 10:34:07;;;;;;;10.07;7.47;;;18.10;30.50;;;;;;5076045;28;20478;-70
2021/04/08 10:36:41;;;;;;;10.45;7.53;;;18.40;31.20;;;;;;5075909;28;20033;-72
2021/04/08 10:39:14;;;;;;;7.68;6.38;;;19.40;31.20;;;;;;5075784;28;20025;-71
2021/04/08 10:41:57;;;;;;;8.55;7.00;;;20.10;30.40;;;;;;5074792;28;20029;-71
2021/04/08 10:44:26;;;;;;;7.95;7.05;;;19.30;30.00;;;;;;5076429;28;20036;-71
2021/04/08 10:46:53;;;;;;;8.73;7.13;;;18.90;30.50;;;;;;5076042;28;20028;-71
2021/04/08 10:49:31;;;;;;;6.40;5.22;;;18.90;30.80;;;;;;5074496;28;20119;-71
2021/04/08 10:52:02;;;;;;;7.68;5.28;;;19.50;30.80;;;;;;5074706;28;20028;-70
2021/04/08 10:54:30;;;;;;;6.00;5.30;;;20.70;30.30;;;;;;5075652;28;20103;-71
2021/04/08 10:56:57;;;;;;;8.05;5.65;;;21.70;29.50;;;;;;5074182;28;20025;-71
2021/04/08 10:59:25;;;;;;;5.50;4.80;;;22.50;29.10;;;;;;5074924;28;20020;-72
2021/04/08 11:01:52;;;;;;;9.52;5.65;;;23.30;28.50;;;;;;5073999;28;20025;-72
2021/04/08 11:04:19;;;;;;;6.85;5.00;;;23.30;28.00;;;;;;5075251;28;20032;-70
2021/04/08 11:06:47;;;;;;;5.57;4.85;;;22.50;27.30;;;;;;5074413;28;20412;-70
2021/04/08 11:09:22;;;;;;;5.55;5.00;;;20.80;27.60;;;;;;5075166;28;20024;-71
2021/04/08 11:11:48;;;;;;;11.02;6.20;;;18.80;28.80;;;;;;5074728;28;20104;-71
2021/04/08 11:14:25;;;;;;;8.20;6.50;;;17.10;30.50;;;;;;5074752;28;20020;-69
2021/04/08 11:16:53;;;;;;;8.50;6.10;;;15.80;32.20;;;;;;5057435;28;20033;-71
2021/04/08 11:19:20;;;;;;;7.00;5.28;;;14.80;33.10;;;;;;5075272;28;20044;-74
2021/04/08 11:21:46;;;;;;;8.38;5.97;;;15.00;34.30;;;;;;5075400;28;20181;-71
2021/04/08 11:24:14;;;;;;;9.07;6.05;;;16.00;34.70;;;;;;5079429;28;20406;-75
2021/04/08 11:26:52;;;;;;;5.78;4.15;;;16.30;33.50;;;;;;5074049;28;20064;-76
2021/04/08 11:29:27;;;;;;;6.75;4.57;;;16.00;31.90;;;;;;5076283;28;20094;-76
2021/04/08 11:32:09;;;;;;;4.82;4.00;;;15.80;32.00;;;;;;5076383;28;20066;-75
2021/04/08 11:34:46;;;;;;;6.70;5.07;;;15.50;32.20;;;;;;5075569;28;20070;-75
2021/04/08 11:37:14;;;;;;;10.18;5.28;;;14.70;33.40;;;;;;5076250;28;20032;-76
2021/04/08 11:39:44;;;;;;;7.28;5.03;;;13.90;34.70;;;;;;5074969;28;20035;-76
2021/04/08 11:42:23;;;;;;;6.63;4.70;;;13.40;35.90;;;;;;5074964;28;20033;-75
2021/04/08 11:44:51;;;;;;;5.95;4.10;;;12.70;36.50;;;;;;5075527;28;20406;-75
2021/04/08 11:47:19;;;;;;;5.78;4.20;;;12.30;37.00;;;;;;5075856;28;20060;-75
2021/04/08 11:49:54;;;;;;;12.02;5.57;;;11.90;37.50;;;;;;5074811;28;20031;-75
2021/04/08 11:52:26;;;;;;;6.47;4.10;;;11.50;38.10;;;;;;5075911;28;20029;-76
2021/04/08 11:55:06;;;;;;;7.43;4.60;;;11.30;38.70;;;;;;5075419;28;20199;-76
2021/04/08 11:57:33;;;;;;;5.88;4.05;;;10.90;39.80;;;;;;5073615;28;20071;-76
2021/04/08 12:00:01;;;;;;;3.08;2.45;;;10.50;40.40;;;;;;5075119;28;20029;-75
2021/04/08 12:02:29;;;;;;;3.78;2.78;;;10.20;40.60;;;;;;5075745;28;20466;-77
2021/04/08 12:04:54;;;;;;;4.22;2.80;;;10.00;40.60;;;;;;5073928;28;20468;-75
2021/04/08 12:07:20;;;;;;;4.75;3.15;;;9.90;41.00;;;;;;5077463;28;20029;-76
2021/04/08 12:09:49;;;;;;;5.45;3.70;;;9.90;41.40;;;;;;5074993;28;20035;-77
2021/04/08 12:12:15;;;;;;;14.43;4.85;;;10.10;41.90;;;;;;5075355;28;20028;-76
2021/04/08 12:14:56;;;;;;;5.22;3.65;;;10.40;42.40;;;;;;5077236;28;20485;-74
2021/04/08 12:17:23;;;;;;;4.55;3.20;;;11.20;42.30;;;;;;5081002;28;20124;-76
2021/04/08 12:19:48;;;;;;;7.00;3.97;;;11.50;41.10;;;;;;5082012;28;20045;-76
2021/04/08 12:22:15;;;;;;;6.80;4.72;;;11.60;40.70;;;;;;5078679;28;20036;-75
2021/04/08 12:25:02;;;;;;;9.02;5.55;;;11.50;40.80;;;;;;5077362;28;20020;-75
2021/04/08 12:27:27;;;;;;;7.38;4.72;;;11.50;41.20;;;;;;5074973;28;20020;-76
2021/04/08 12:29:53;;;;;;;10.23;4.78;;;11.80;41.70;;;;;;5074599;28;20360;-76
2021/04/08 12:32:29;;;;;;;5.45;4.25;;;12.20;41.80;;;;;;5073529;28;20027;-76
2021/04/08 12:34:55;;;;;;;7.10;4.28;;;12.70;41.60;;;;;;5075708;28;20025;-77
2021/04/08 12:37:21;;;;;;;4.85;3.55;;;13.10;41.30;;;;;;5075152;28;20040;-76
2021/04/08 12:39:46;;;;;;;6.65;4.40;;;13.60;41.00;;;;;;5075286;28;20020;-77
2021/04/08 12:42:12;;;;;;;5.43;4.07;;;14.40;40.60;;;;;;5074838;28;20103;-75
2021/04/08 12:44:38;;;;;;;7.25;5.10;;;15.30;39.90;;;;;;5075052;28;20032;-74
2021/04/08 12:47:04;;;;;;;9.07;5.53;;;16.60;39.40;;;;;;5074765;28;20020;-76
2021/04/08 12:49:29;;;;;;;7.15;4.95;;;18.20;38.50;;;;;;5075058;28;20095;-76
2021/04/08 12:51:55;;;;;;;7.00;4.97;;;19.80;36.90;;;;;;5075516;28;20047;-76
2021/04/08 12:54:21;;;;;;;7.25;4.75;;;21.00;34.70;;;;;;5075192;28;20028;-76
2021/04/08 12:56:46;;;;;;;7.88;4.93;;;21.90;33.40;;;;;;5075365;28;20051;-76
2021/04/08 12:59:13;;;;;;;5.38;4.28;;;22.80;32.50;;;;;;5073909;28;20357;-75